Terminal Aerodrome Forecast
Issued by NWS

Home | Current Version | Previous Version | Text Only | Print | Product List | Glossary On
Versions: 1 2 3 4 5 6 7 8 9 10 11 12 13 14 15
000
FTUS44 KCRP 040534
TAFALI
TAF
KALI 040534Z 0406/0506 14007KT P6SM SCT015 BKN050
      TEMPO 0408/0412 BKN015
     FM041500 14013KT P6SM SCT025 BKN050
     FM042000 13016G22KT P6SM SCT040 BKN100
     FM050100 13011KT P6SM SCT015 BKN250
      TEMPO 0503/0506 BKN015=

USA.gov is the U.S. government's official web portal to all federal, state and local government web resources and services.